Flight Track Log - Related Links

Times and Time Zones

All times are in EDT time to prevent confusion due to time zone crossing. See the VRT51 flight status page for this flight to view local times or setup timezone preferences in your user account.

Time Position Orientation Groundspeed Altitude Reporting Facility
EDT Latitude Longitude Course Direction KTS MPH feet Rate Location/Type
Fri 04:08:21 PM 36.1000 -86.6833 253° West 183 211 1,300  Level Nashville TRACON
Fri 04:09:21 PM 36.0833 -86.7500 253° West 211 243 4,000 2,850 Climbing Nashville TRACON
Fri 04:10:21 PM 36.1333 -86.8000 321° Northwest 219 252 7,000 2,579 Climbing Nashville TRACON
Fri 04:11:15 PM 36.1833 -86.8500 321° Northwest 287 330 8,900 2,194 Climbing Nashville TRACON
Fri 04:11:54 PM 36.2122 -86.8894 312° West 294 338 10,400 2,182 Climbing Memphis Center
Fri 04:12:54 PM 36.2811 -86.9714 316° Northwest 331 381 12,500 2,550 Climbing Memphis Center
Fri 04:13:54 PM 36.3672 -87.0683 318° Northwest 357 411 15,500 3,000 Climbing Memphis Center
Fri 04:14:54 PM 36.4489 -87.1606 318° Northwest 382 440 18,500 2,700 Climbing Memphis Center
Fri 04:15:54 PM 36.5244 -87.2633 312° West 398 458 20,900 1,650 Climbing Memphis Center
Fri 04:16:54 PM 36.6039 -87.3639 315° West 413 475 21,800 550 Climbing Memphis Center
Fri 04:17:54 PM 36.6900 -87.4744 314° West 420 483 22,000 600 Climbing Memphis Center
Fri 04:18:54 PM 36.7717 -87.5828 313° West 427 491 23,000 1,400 Climbing Memphis Center
Fri 04:19:54 PM 36.8756 -87.6725 325° Northwest 440 506 24,800 1,750 Climbing Memphis Center
Fri 04:20:54 PM 36.9808 -87.7236 339° North 447 514 26,500 1,850 Climbing Memphis Center
Fri 04:21:54 PM 37.0967 -87.7822 338° Northwest 447 514 28,500 1,900 Climbing Memphis Center
Fri 04:22:54 PM 37.2106 -87.8383 339° North 441 507 30,300 1,650 Climbing Memphis Center
Fri 04:23:54 PM 37.3264 -87.9025 336° Northwest 440 506 31,800 1,140 Climbing Memphis Center
Fri 04:24:34 PM 37.3892 -87.9786 316° Northwest 450 518 32,200 1,069 Climbing Indianapolis Center
Fri 04:25:35 PM 37.4725 -88.0739 318° Northwest 439 505 33,600 1,122 Climbing Indianapolis Center
Fri 04:26:37 PM 37.5636 -88.1783 318° Northwest 439 505 34,500 1,561 Climbing Indianapolis Center
Fri 04:28:51 PM 37.7989 -88.3333 333° Northwest 423 487 38,700 1,508 Climbing Kansas City Center
Fri 04:29:52 PM 37.9036 -88.3842 339° North 411 473 39,400 639 Climbing Kansas City Center
Fri 04:30:53 PM 38.0103 -88.4372 339° North 407 468 40,000 295 Climbing Kansas City Center
Fri 04:31:54 PM 38.1225 -88.4933 339° North 422 486 40,000  Level Kansas City Center
Fri 04:32:58 PM 38.2392 -88.5494 339° North 436 502 40,000  Level Kansas City Center
Fri 04:33:58 PM 38.3553 -88.6078 338° Northwest 443 510 40,000 145 Level Kansas City Center
Fri 04:35:02 PM 38.4878 -88.6747 338° Northwest 447 514 40,300 629 Climbing Kansas City Center
Fri 04:36:02 PM 38.6092 -88.7353 339° North 441 507 41,300 968 Climbing Kansas City Center
Fri 04:37:06 PM 38.7106 -88.7872 338° Northwest 434 499 42,300 816 Climbing Kansas City Center
Fri 04:38:07 PM 38.8183 -88.8406 339° North 425 489 43,000 336 Climbing Kansas City Center
Fri 04:39:11 PM 38.9250 -88.8958 338° Northwest 418 481 43,000  Level Kansas City Center
Fri 04:40:12 PM 39.0603 -88.9639 339° North 422 486 43,000  Level Kansas City Center
Fri 04:41:12 PM 39.1661 -89.0178 338° Northwest 427 491 43,000  Level Kansas City Center
Fri 04:42:16 PM 39.2761 -89.0739 338° Northwest 427 491 43,000  Level Kansas City Center
Fri 04:43:19 PM 39.3842 -89.1308 338° Northwest 423 487 43,000  Level Kansas City Center
Fri 04:44:20 PM 39.5089 -89.1942 339° North 421 484 43,000  Level Kansas City Center
Fri 04:45:21 PM 39.6178 -89.2508 338° Northwest 422 486 43,000  Level Kansas City Center
Fri 04:46:24 PM 39.7275 -89.3078 338° Northwest 423 487 43,000  Level Kansas City Center
Fri 04:47:28 PM 39.8372 -89.3650 338° Northwest 425 489 43,000  Level Kansas City Center
Fri 04:48:29 PM 39.9467 -89.4231 338° Northwest 425 489 43,000  Level Kansas City Center
Fri 04:49:30 PM 40.0572 -89.4811 338° Northwest 425 489 43,000  Level Kansas City Center
Fri 04:50:17 PM 40.1444 -89.5281 338° Northwest 426 490 43,000  Level Chicago Center
Fri 04:51:19 PM 40.2767 -89.5981 338° Northwest 426 490 43,000  Level Chicago Center
Fri 04:52:21 PM 40.3875 -89.6564 338° Northwest 429 494 43,000  Level Chicago Center
Fri 04:53:23 PM 40.5000 -89.7156 338° Northwest 426 490 43,000  Level Chicago Center
Fri 04:54:25 PM 40.6100 -89.7739 338° Northwest 426 490 43,000  Level Chicago Center
Fri 04:55:28 PM 40.7228 -89.8353 338° Northwest 433 498 43,000  Level Chicago Center
Fri 04:56:30 PM 40.8617 -89.9086 338° Northwest 443 510 43,000  Level Chicago Center
Fri 04:57:32 PM 40.9725 -89.9694 337° Northwest 434 499 43,000  Level Chicago Center
Fri 04:58:34 PM 41.0725 -90.0231 338° Northwest 434 499 43,000  Level Chicago Center
Fri 04:59:36 PM 41.2089 -90.0975 338° Northwest 440 506 43,000  Level Chicago Center
Fri 05:00:38 PM 41.3225 -90.1586 338° Northwest 441 507 43,000 -145 Level Chicago Center
Fri 05:01:40 PM 41.4367 -90.2214 338° Northwest 444 511 42,700 -968 Descending Chicago Center
Fri 05:02:42 PM 41.5522 -90.2875 337° Northwest 450 518 41,000 -1,790 Descending Chicago Center
Fri 05:03:44 PM 41.6678 -90.3514 338° Northwest 450 518 39,000 -2,256 Descending Chicago Center
Fri 05:04:47 PM 41.8050 -90.4150 341° North 453 521 36,300 -1,440 Descending Chicago Center
Fri 05:05:49 PM 41.9244 -90.4758 339° North 464 534 36,000 -145 Descending Chicago Center
Fri 05:06:51 PM 42.0447 -90.5453 337° Northwest 474 545 36,000  Level Chicago Center
Fri 05:07:00 PM 42.0394 -90.5676 337° Northwest  Level FlightAware Approximate
Fri 05:07:53 PM 42.1647 -90.6172 336° Northwest 477 549 36,000  Level Chicago Center
Fri 05:08:55 PM 42.2847 -90.6850 337° Northwest 475 547 36,000  Level Chicago Center
Fri 05:09:57 PM 42.4278 -90.7656 337° Northwest 470 541 36,000 -484 Level Chicago Center
Fri 05:10:59 PM 42.5492 -90.8358 337° Northwest 479 551 35,000 -968 Descending Chicago Center
Fri 05:12:01 PM 42.6694 -90.9050 337° Northwest 475 547 34,000 -968 Descending Chicago Center
Fri 05:13:03 PM 42.7925 -90.9764 337° Northwest 483 556 33,000 -960 Descending Chicago Center
Fri 05:14:06 PM 42.9189 -91.0944 326° Northwest 473 544 32,000 -480 Descending Chicago Center
Fri 05:15:08 PM 42.9936 -91.2306 307° West 461 531 32,000  Level Chicago Center
Fri 05:16:10 PM 43.0700 -91.3642 308° West 456 525 32,000  Level Chicago Center
Fri 05:17:12 PM 43.1481 -91.5011 308° West 463 533 32,000  Level Chicago Center
Fri 05:18:14 PM 43.2433 -91.6689 308° West 471 542 32,000  Level Chicago Center
Fri 05:19:16 PM 43.3222 -91.8081 308° West 470 541 32,000 -711 Level Chicago Center
Fri 05:20:46 PM 43.4483 -92.0303 308° West 469 540 30,200 -1,461 Descending Minneapolis Center
Fri 05:21:48 PM 43.5253 -92.1672 308° West 461 531 28,300 -1,887 Descending Minneapolis Center
Fri 05:22:50 PM 43.6014 -92.3056 307° West 459 528 26,300 -1,920 Descending Minneapolis Center
Fri 05:23:53 PM 43.6783 -92.4436 308° West 458 527 24,300 -1,920 Descending Minneapolis Center
Fri 05:24:55 PM 43.7533 -92.5789 308° West 452 520 22,300 -1,984 Descending Minneapolis Center
Fri 05:25:57 PM 43.8328 -92.7242 307° West 443 510 20,200 -2,129 Descending Minneapolis Center
Fri 05:26:59 PM 43.9033 -92.8547 307° West 426 490 17,900 -2,419 Descending Minneapolis Center
Fri 05:28:01 PM 43.9861 -93.0078 307° West 415 478 15,200 -2,274 Descending Minneapolis Center
Fri 05:29:03 PM 44.0544 -93.1336 307° West 410 472 13,200 -1,935 Descending Minneapolis Center
Fri 05:30:05 PM 44.1164 -93.2494 307° West 374 430 11,200 -1,887 Descending Minneapolis Center
Fri 05:31:07 PM 44.1678 -93.3453 307° West 314 361 9,300 -1,645 Descending Minneapolis Center
Fri 05:32:09 PM 44.2139 -93.4311 307° West 283 326 7,800 -1,500 Descending Minneapolis Center
Fri 05:33:11 PM 44.2967 -93.4642 344° North 330 380 6,200 -1,355 Descending Minneapolis Center
Fri 05:34:13 PM 44.3883 -93.4572 North 331 381 5,000 -581 Descending Minneapolis Center
Fri 05:35:15 PM 44.4956 -93.4533 North 321 369 5,000 -387 Level Minneapolis Center
Fri 05:36:17 PM 44.5864 -93.4506 North 325 374 4,200 -484 Descending Minneapolis Center
Fri 05:37:19 PM 44.6717 -93.4483 North 306 352 4,000 -97 Descending Minneapolis Center
Fri 05:38:21 PM 44.7542 -93.4250 11° North 301 346 4,000  Level Minneapolis Center
Fri 05:39:23 PM 44.8256 -93.3614 32° Northeast 299 344 4,000  Level Minneapolis Center
Fri 05:40:25 PM 44.8889 -93.2872 40° Northeast 289 333 4,000 -242 Level Minneapolis Center
Fri 05:41:27 PM 44.9461 -93.2106 43° Northeast 281 323 3,500 -581 Descending Minneapolis Center
Fri 05:42:29 PM 44.9922 -93.1481 44° Northeast 221 254 2,800 -774 Descending Minneapolis Center
Fri 05:43:31 PM 44.9825 -93.1064 108° East 120 138 1,900 -823 Descending Minneapolis Center
Fri 05:44:33 PM 44.9525 -93.0789 147° Southeast 107 123 1,100 -435 Descending Minneapolis Center
Fri 05:45:35 PM 44.9275 -93.0542 145° Southeast 108 124 1,000 -97 Descending Minneapolis Center
Fri 05:47:00 PM 44.9333 -93.0500 North  Level FlightAware Approximate

Login

Don't have an account? Register now (free) for customized features, flight alerts, and more!